createdAt,value
2019-05-07T00:00:45.569Z,2.50
2019-05-07T00:03:15.896Z,2.62
2019-05-07T00:05:46.240Z,2.17
2019-05-07T00:08:16.574Z,2.50
2019-05-07T00:10:46.919Z,2.45
2019-05-07T00:13:17.244Z,2.62
2019-05-07T00:15:47.587Z,2.45
2019-05-07T00:18:17.915Z,2.40
2019-05-07T00:20:48.275Z,2.33
2019-05-07T00:23:18.602Z,2.40
2019-05-07T00:25:49.009Z,2.40
2019-05-07T00:28:19.336Z,1.90
2019-05-07T00:30:51.978Z,1.80
2019-05-07T00:33:22.811Z,2.20
2019-05-07T00:35:54.835Z,2.60
2019-05-07T00:38:26.795Z,2.40
2019-05-07T00:41:02.820Z,2.42
2019-05-07T00:43:52.522Z,2.20
2019-05-07T00:46:24.817Z,2.58
2019-05-07T00:48:55.139Z,2.40
2019-05-07T00:51:27.115Z,2.55
2019-05-07T00:53:57.506Z,2.50
2019-05-07T00:56:27.927Z,3.42
2019-05-07T00:58:58.781Z,2.98
2019-05-07T01:01:29.118Z,2.80
2019-05-07T01:03:59.438Z,3.27
2019-05-07T01:06:49.114Z,3.15
2019-05-07T01:09:19.434Z,2.67
2019-05-07T01:11:49.779Z,2.77
2019-05-07T01:14:27.915Z,2.90
2019-05-07T01:16:58.256Z,3.15
2019-05-07T01:19:28.575Z,3.65
2019-05-07T01:21:58.916Z,3.25
2019-05-07T01:24:29.240Z,3.17
2019-05-07T01:26:59.577Z,3.10
2019-05-07T01:29:29.898Z,3.50
2019-05-07T01:32:04.736Z,3.62
2019-05-07T01:34:39.878Z,3.00
2019-05-07T01:37:12.293Z,3.08
2019-05-07T01:39:42.337Z,3.37
2019-05-07T01:42:13.629Z,3.60
2019-05-07T01:44:43.943Z,3.00
2019-05-07T01:47:14.275Z,3.12
2019-05-07T01:49:44.592Z,3.15
2019-05-07T01:52:14.918Z,3.17
2019-05-07T01:54:47.345Z,3.50
2019-05-07T01:57:17.263Z,2.85
2019-05-07T01:59:47.587Z,3.45
2019-05-07T02:05:27.468Z,3.42
2019-05-07T02:07:59.443Z,3.42
2019-05-07T02:10:34.082Z,3.60
2019-05-07T02:13:23.747Z,4.10
2019-05-07T02:16:00.850Z,4.33
2019-05-07T02:18:26.094Z,4.00
2019-05-07T02:20:56.420Z,4.20
2019-05-07T02:23:26.758Z,4.25
2019-05-07T02:25:57.076Z,3.90
2019-05-07T02:28:27.411Z,4.72
2019-05-07T02:30:57.732Z,4.20
2019-05-07T02:33:28.056Z,4.17
2019-05-07T02:36:14.179Z,3.30
2019-05-07T02:38:45.927Z,4.08
2019-05-07T02:41:25.277Z,3.58
2019-05-07T02:43:59.639Z,4.37
2019-05-07T02:46:36.449Z,5.00
2019-05-07T02:52:24.758Z,4.85
2019-05-07T02:54:59.360Z,5.45
2019-05-07T02:57:29.964Z,4.95
2019-05-07T03:00:04.073Z,4.85
2019-05-07T03:02:33.194Z,5.25
2019-05-07T03:05:05.207Z,5.00
2019-05-07T03:07:36.810Z,4.92
2019-05-07T03:10:17.751Z,4.78
2019-05-07T03:12:48.258Z,4.72
2019-05-07T03:15:18.573Z,4.47
2019-05-07T03:17:48.901Z,4.70
2019-05-07T03:20:22.983Z,4.67
2019-05-07T03:22:53.998Z,5.85
2019-05-07T03:25:26.012Z,4.35
2019-05-07T03:28:15.693Z,5.72
2019-05-07T03:33:56.375Z,5.50
2019-05-07T03:36:47.711Z,5.80
2019-05-07T03:39:15.773Z,5.47
2019-05-07T03:41:46.092Z,4.85
2019-05-07T03:44:23.836Z,5.33
2019-05-07T03:47:02.119Z,5.85
2019-05-07T03:49:34.246Z,5.70
2019-05-07T03:52:04.861Z,5.72
2019-05-07T03:54:35.144Z,5.42
2019-05-07T03:57:11.246Z,5.17
2019-05-07T03:59:37.481Z,5.47
2019-05-07T04:02:27.144Z,5.70
2019-05-07T04:04:57.467Z,5.83
2019-05-07T04:07:47.153Z,5.30
2019-05-07T04:10:17.881Z,5.28
2019-05-07T04:12:48.205Z,5.45
2019-05-07T04:15:19.482Z,6.30
2019-05-07T04:17:53.909Z,6.17
2019-05-07T04:20:24.230Z,5.75
2019-05-07T04:22:54.660Z,4.87
2019-05-07T04:25:26.640Z,5.53
2019-05-07T04:27:58.603Z,5.70
2019-05-07T04:30:33.092Z,5.35
2019-05-07T04:33:13.029Z,5.45
2019-05-07T04:35:44.014Z,6.00
2019-05-07T04:38:14.344Z,5.72
2019-05-07T04:40:44.673Z,5.87
2019-05-07T04:43:15.013Z,5.62
2019-05-07T04:45:45.339Z,5.28
2019-05-07T04:48:15.672Z,5.55
2019-05-07T04:50:48.147Z,5.05
2019-05-07T04:53:18.445Z,5.67
2019-05-07T04:55:48.781Z,5.37
2019-05-07T04:58:19.113Z,6.53
2019-05-07T05:00:49.442Z,6.45
2019-05-07T05:06:14.739Z,6.58
2019-05-07T05:08:45.058Z,6.53
2019-05-07T05:11:15.394Z,6.15
2019-05-07T05:13:45.734Z,6.75
2019-05-07T05:16:28.185Z,6.47
2019-05-07T05:18:58.652Z,7.00
2019-05-07T05:21:47.152Z,6.78
2019-05-07T05:24:42.417Z,6.83
2019-05-07T05:27:12.897Z,5.95
2019-05-07T05:29:43.227Z,6.47
2019-05-07T05:32:13.559Z,6.80
2019-05-07T05:34:43.886Z,6.62
2019-05-07T05:37:14.222Z,5.75
2019-05-07T05:39:44.548Z,6.42
2019-05-07T05:42:16.523Z,6.80
2019-05-07T05:44:46.856Z,6.85
2019-05-07T05:47:17.183Z,7.12
2019-05-07T05:49:47.508Z,6.37
2019-05-07T05:52:35.565Z,7.60
2019-05-07T05:55:08.253Z,7.22
2019-05-07T05:57:42.329Z,6.75
2019-05-07T06:00:32.825Z,6.67
2019-05-07T06:03:22.592Z,6.53
2019-05-07T06:05:54.339Z,6.25
2019-05-07T06:08:34.815Z,5.75
2019-05-07T06:11:06.777Z,5.67
2019-05-07T06:13:41.923Z,6.47
2019-05-07T06:16:16.584Z,6.53
2019-05-07T06:19:03.781Z,5.67
2019-05-07T06:21:52.621Z,6.03
2019-05-07T06:24:39.984Z,5.65
2019-05-07T06:27:12.259Z,5.47
2019-05-07T06:30:04.789Z,5.58
2019-05-07T06:32:33.772Z,4.97
2019-05-07T06:35:05.839Z,5.58
2019-05-07T06:37:36.545Z,5.87
2019-05-07T06:40:19.318Z,5.72
2019-05-07T06:42:49.809Z,5.75
2019-05-07T06:45:34.740Z,5.03
2019-05-07T06:48:03.066Z,4.92
2019-05-07T06:50:33.481Z,4.80
2019-05-07T06:53:03.902Z,4.53
2019-05-07T06:55:35.205Z,4.22
2019-05-07T06:58:07.412Z,4.12
2019-05-07T07:00:39.387Z,4.08
2019-05-07T07:03:12.727Z,4.40
2019-05-07T07:05:44.781Z,3.87
2019-05-07T07:08:23.085Z,3.85
2019-05-07T07:11:02.621Z,3.85
2019-05-07T07:13:33.429Z,3.75
2019-05-07T07:16:03.763Z,3.80
2019-05-07T07:18:47.619Z,3.92
2019-05-07T07:21:06.203Z,3.52
2019-05-07T07:23:36.542Z,4.20
2019-05-07T07:26:09.827Z,3.75
2019-05-07T07:28:40.169Z,3.62
2019-05-07T07:31:12.969Z,3.80
2019-05-07T07:33:58.287Z,4.35
2019-05-07T07:36:32.040Z,4.92
2019-05-07T07:39:03.272Z,5.83
2019-05-07T07:41:42.765Z,5.30
2019-05-07T07:44:13.500Z,5.70
2019-05-07T07:46:43.914Z,6.10
2019-05-07T07:49:15.231Z,5.97
2019-05-07T07:51:45.978Z,5.15
2019-05-07T07:54:16.496Z,5.17
2019-05-07T07:56:55.596Z,5.83
2019-05-07T07:59:36.870Z,5.50
2019-05-07T08:02:12.388Z,5.30
2019-05-07T08:04:42.841Z,5.60
2019-05-07T08:07:14.246Z,6.85
2019-05-07T08:09:44.511Z,6.67
2019-05-07T08:12:16.468Z,6.85
2019-05-07T08:14:46.807Z,6.72
2019-05-07T08:17:17.149Z,6.45
2019-05-07T08:19:47.553Z,7.10
2019-05-07T08:22:17.902Z,6.62
2019-05-07T08:24:48.242Z,7.72
2019-05-07T08:27:18.574Z,7.17
2019-05-07T08:29:48.906Z,8.18
2019-05-07T08:32:23.648Z,7.87
2019-05-07T08:34:55.623Z,8.13
2019-05-07T08:37:25.968Z,8.90
2019-05-07T08:39:56.302Z,8.15
2019-05-07T08:42:26.653Z,7.87
2019-05-07T08:44:58.670Z,8.30
2019-05-07T08:47:42.675Z,8.28
2019-05-07T08:50:13.226Z,8.40
2019-05-07T08:52:43.573Z,9.10
2019-05-07T08:55:13.965Z,8.50
2019-05-07T08:57:45.997Z,9.33
2019-05-07T09:00:22.212Z,8.35
2019-05-07T09:02:52.428Z,8.63
2019-05-07T09:05:22.895Z,8.25
2019-05-07T09:07:53.237Z,7.65
2019-05-07T09:10:23.583Z,8.63
2019-05-07T09:12:53.930Z,8.08
2019-05-07T09:15:24.263Z,8.25
2019-05-07T09:17:54.603Z,8.75
2019-05-07T09:20:24.938Z,8.50
2019-05-07T09:22:55.349Z,8.90
2019-05-07T09:25:25.690Z,7.70
2019-05-07T09:27:56.408Z,8.18
2019-05-07T09:30:44.480Z,7.67
2019-05-07T09:33:16.460Z,8.00
2019-05-07T09:35:48.467Z,8.30
2019-05-07T09:38:18.814Z,9.13
2019-05-07T09:40:49.155Z,8.70
2019-05-07T09:43:19.500Z,9.08
2019-05-07T09:45:49.834Z,8.78
2019-05-07T09:48:22.077Z,7.85
2019-05-07T09:50:53.093Z,7.83
2019-05-07T09:53:23.519Z,7.10
2019-05-07T09:55:53.862Z,7.78
2019-05-07T09:58:35.544Z,8.70
2019-05-07T10:00:56.302Z,8.68
2019-05-07T10:03:26.636Z,8.15
2019-05-07T10:05:56.979Z,8.43
2019-05-07T10:08:27.383Z,8.10
2019-05-07T10:10:57.792Z,8.68
2019-05-07T10:13:33.100Z,9.80
2019-05-07T10:16:04.305Z,10.05
2019-05-07T10:18:35.619Z,11.00
2019-05-07T10:21:06.030Z,10.48
2019-05-07T10:23:36.367Z,9.18
2019-05-07T10:26:06.947Z,9.88
2019-05-07T10:28:37.286Z,9.93
2019-05-07T10:31:07.627Z,9.80
2019-05-07T10:33:37.962Z,8.45
2019-05-07T10:36:08.302Z,9.38
2019-05-07T10:38:39.006Z,9.58
2019-05-07T10:41:12.147Z,10.00
2019-05-07T10:43:42.922Z,9.48
2019-05-07T10:46:23.731Z,9.28
2019-05-07T10:49:01.988Z,10.03
2019-05-07T10:51:32.428Z,10.05
2019-05-07T10:54:02.767Z,9.10
2019-05-07T10:56:33.275Z,8.38
2019-05-07T10:59:03.705Z,8.00
2019-05-07T11:01:39.505Z,8.00
2019-05-07T11:04:09.842Z,7.35
2019-05-07T11:06:41.782Z,8.33
2019-05-07T11:09:12.281Z,8.58
2019-05-07T11:11:42.629Z,7.92
2019-05-07T11:14:12.978Z,8.10
2019-05-07T11:19:59.545Z,8.20
2019-05-07T11:22:29.883Z,8.20
2019-05-07T11:25:02.864Z,7.90
2019-05-07T11:27:33.037Z,7.37
2019-05-07T11:30:05.328Z,7.75
2019-05-07T11:32:35.673Z,7.17
2019-05-07T11:35:09.073Z,8.15
2019-05-07T11:37:39.410Z,7.40
2019-05-07T11:40:12.952Z,7.78
2019-05-07T11:43:02.468Z,8.35
2019-05-07T11:45:34.752Z,8.00
2019-05-07T11:48:05.431Z,8.05
2019-05-07T11:50:37.408Z,7.78
2019-05-07T11:53:09.390Z,8.15
2019-05-07T11:55:42.047Z,9.05
2019-05-07T11:58:12.918Z,8.50
2019-05-07T12:01:03.614Z,8.75
2019-05-07T12:03:32.784Z,8.68
2019-05-07T12:06:03.129Z,8.35
2019-05-07T12:08:42.885Z,8.73
2019-05-07T12:11:05.512Z,8.48
2019-05-07T12:13:35.857Z,8.40
2019-05-07T12:16:06.203Z,9.33
2019-05-07T12:18:36.560Z,8.75
2019-05-07T12:21:20.040Z,8.35
2019-05-07T12:23:38.955Z,9.35
2019-05-07T12:26:09.290Z,8.90
2019-05-07T12:28:41.699Z,8.18
2019-05-07T12:31:13.478Z,9.25
2019-05-07T12:33:53.925Z,8.88
2019-05-07T12:36:24.253Z,9.33
2019-05-07T12:38:54.598Z,9.35
2019-05-07T12:41:33.870Z,9.68
2019-05-07T12:44:07.598Z,10.40
2019-05-07T12:46:38.286Z,10.63
2019-05-07T12:49:08.690Z,11.05
2019-05-07T12:51:43.893Z,12.33
2019-05-07T12:54:22.681Z,12.03
2019-05-07T12:56:53.117Z,11.53
2019-05-07T12:59:23.459Z,11.20
2019-05-07T13:01:55.455Z,10.20
2019-05-07T13:04:27.427Z,11.33
2019-05-07T13:07:02.582Z,11.55
2019-05-07T13:09:33.054Z,11.55
2019-05-07T13:12:03.396Z,11.45
2019-05-07T13:14:33.737Z,10.55
2019-05-07T13:17:04.079Z,12.00
2019-05-07T13:19:34.431Z,11.50
2019-05-07T13:22:04.843Z,11.80
2019-05-07T13:24:35.189Z,11.35
2019-05-07T13:27:05.600Z,11.22
2019-05-07T13:29:35.937Z,9.90
2019-05-07T13:32:06.284Z,10.75
2019-05-07T13:34:36.700Z,10.72
2019-05-07T13:37:12.747Z,11.28
2019-05-07T13:39:44.895Z,10.63
2019-05-07T13:42:32.982Z,9.40
2019-05-07T13:45:06.402Z,9.40
2019-05-07T13:47:37.750Z,10.00
2019-05-07T13:50:08.995Z,9.78
2019-05-07T13:52:39.607Z,9.78
2019-05-07T13:55:12.708Z,9.85
2019-05-07T13:57:43.238Z,10.80
2019-05-07T14:00:16.142Z,10.78
2019-05-07T14:02:46.467Z,10.90
2019-05-07T14:05:17.947Z,10.18
2019-05-07T14:07:48.567Z,10.35
2019-05-07T14:10:18.983Z,11.18
2019-05-07T14:12:51.998Z,10.53
2019-05-07T14:15:23.131Z,10.20
2019-05-07T14:17:55.112Z,9.88
2019-05-07T14:20:25.450Z,10.35
2019-05-07T14:22:55.793Z,9.20
2019-05-07T14:25:26.139Z,9.00
2019-05-07T14:27:58.822Z,8.85
2019-05-07T14:30:28.529Z,8.73
2019-05-07T14:33:05.938Z,9.08
2019-05-07T14:35:39.743Z,9.03
2019-05-07T14:38:13.834Z,9.33
2019-05-07T14:40:44.024Z,7.75
2019-05-07T14:43:18.964Z,8.73
2019-05-07T14:45:49.636Z,9.00
2019-05-07T14:48:19.983Z,9.10
2019-05-07T14:50:50.313Z,8.03
2019-05-07T14:53:22.373Z,8.20
2019-05-07T14:55:52.914Z,9.13
2019-05-07T14:58:23.270Z,9.53
2019-05-07T15:00:53.756Z,8.30
2019-05-07T15:03:24.227Z,9.10
2019-05-07T15:05:54.629Z,7.78
2019-05-07T15:08:25.025Z,8.40
2019-05-07T15:10:55.372Z,8.58
2019-05-07T15:13:25.706Z,9.08
2019-05-07T15:15:56.055Z,9.23
2019-05-07T15:18:44.382Z,8.90
2019-05-07T15:21:14.790Z,8.88
2019-05-07T15:23:45.537Z,8.70
2019-05-07T15:26:16.009Z,8.60
2019-05-07T15:28:52.140Z,9.08
2019-05-07T15:31:36.507Z,8.53
2019-05-07T15:34:06.851Z,8.33
2019-05-07T15:36:37.258Z,8.00
2019-05-07T15:39:08.064Z,7.00
2019-05-07T15:41:38.691Z,7.42
2019-05-07T15:44:09.031Z,8.08
2019-05-07T15:46:39.376Z,6.72
2019-05-07T15:49:09.778Z,7.72
2019-05-07T15:51:41.927Z,7.20
2019-05-07T15:54:12.945Z,7.62
2019-05-07T15:56:44.297Z,7.35
2019-05-07T15:59:16.276Z,7.35
2019-05-07T16:01:46.632Z,7.22
2019-05-07T16:04:22.400Z,6.35
2019-05-07T16:06:49.025Z,6.62
2019-05-07T16:09:19.369Z,7.15
2019-05-07T16:11:49.708Z,8.03
2019-05-07T16:14:26.892Z,7.55
2019-05-07T16:16:58.087Z,7.22
2019-05-07T16:19:29.103Z,6.12
2019-05-07T16:22:03.590Z,6.08
2019-05-07T16:24:33.112Z,6.35
2019-05-07T16:27:05.228Z,6.60
2019-05-07T16:29:36.009Z,6.70
2019-05-07T16:32:06.621Z,6.05
2019-05-07T16:34:37.032Z,6.42
2019-05-07T16:37:07.726Z,6.10
2019-05-07T16:39:38.188Z,5.33
2019-05-07T16:42:08.520Z,5.67
2019-05-07T16:44:38.856Z,5.33
2019-05-07T16:47:09.224Z,5.00
2019-05-07T16:49:39.553Z,6.08
2019-05-07T16:52:11.871Z,5.87
2019-05-07T16:54:44.869Z,6.28
2019-05-07T16:57:27.561Z,6.67
2019-05-07T16:59:57.898Z,6.42
2019-05-07T17:02:34.009Z,6.97
2019-05-07T17:05:08.197Z,6.78
2019-05-07T17:07:48.996Z,6.50
2019-05-07T17:10:19.469Z,6.97
2019-05-07T17:12:49.829Z,6.85
2019-05-07T17:15:20.300Z,6.83
2019-05-07T17:17:52.283Z,7.25
2019-05-07T17:20:22.630Z,6.80
2019-05-07T17:22:52.968Z,7.20
2019-05-07T17:25:38.404Z,7.75
2019-05-07T17:28:12.594Z,7.00
2019-05-07T17:30:43.173Z,6.83
2019-05-07T17:33:13.518Z,7.12
2019-05-07T17:35:45.954Z,7.05
2019-05-07T17:38:15.901Z,7.03
2019-05-07T17:40:46.511Z,6.83
2019-05-07T17:43:16.849Z,6.35
2019-05-07T17:45:47.207Z,6.55
2019-05-07T17:48:17.541Z,6.80
2019-05-07T17:51:07.839Z,6.47
2019-05-07T17:53:38.183Z,7.53
2019-05-07T17:56:08.519Z,6.83
2019-05-07T17:58:38.864Z,7.45
2019-05-07T18:01:09.270Z,6.62
2019-05-07T18:03:42.802Z,7.45
2019-05-07T18:06:14.233Z,6.83
2019-05-07T18:08:44.585Z,6.85
2019-05-07T18:11:20.848Z,7.17
2019-05-07T18:13:46.971Z,6.80
2019-05-07T18:16:18.946Z,6.70
2019-05-07T18:18:49.294Z,7.10
2019-05-07T18:21:21.889Z,6.55
2019-05-07T18:23:51.817Z,6.22
2019-05-07T18:26:30.398Z,6.15
2019-05-07T18:28:55.107Z,7.12
2019-05-07T18:31:45.108Z,6.67
2019-05-07T18:34:15.618Z,6.92
2019-05-07T18:36:45.962Z,6.10
2019-05-07T18:39:16.281Z,6.50
2019-05-07T18:41:46.614Z,7.37
2019-05-07T18:44:16.955Z,7.20
2019-05-07T18:46:47.295Z,6.85
2019-05-07T18:49:17.656Z,7.50
2019-05-07T18:51:48.025Z,6.92
2019-05-07T18:54:27.908Z,6.10
2019-05-07T18:56:52.900Z,6.45
2019-05-07T18:59:24.985Z,7.03
2019-05-07T19:01:55.324Z,7.90
2019-05-07T19:04:25.661Z,7.62
2019-05-07T19:06:56.002Z,8.00
2019-05-07T19:09:26.349Z,8.10
2019-05-07T19:11:56.679Z,8.05
2019-05-07T19:14:27.022Z,8.28
2019-05-07T19:16:57.362Z,8.88
2019-05-07T19:19:27.706Z,9.40
2019-05-07T19:21:58.045Z,10.25
2019-05-07T19:24:42.269Z,9.50
2019-05-07T19:27:02.159Z,9.48
2019-05-07T19:29:33.932Z,8.40
2019-05-07T19:32:05.916Z,7.62
2019-05-07T19:34:37.332Z,7.20
2019-05-07T19:37:07.681Z,7.53
2019-05-07T19:39:38.010Z,7.87
2019-05-07T19:42:08.364Z,7.72
2019-05-07T19:44:38.705Z,8.18
2019-05-07T19:47:09.036Z,7.37
2019-05-07T19:49:41.731Z,8.43
2019-05-07T19:52:12.411Z,7.90
2019-05-07T19:54:47.147Z,8.30
2019-05-07T20:00:13.606Z,7.37
2019-05-07T20:02:45.588Z,7.53
2019-05-07T20:05:16.063Z,7.35
2019-05-07T20:07:46.391Z,8.33
2019-05-07T20:10:18.520Z,7.90
2019-05-07T20:12:48.853Z,7.97
2019-05-07T20:15:19.191Z,7.55
2019-05-07T20:17:49.639Z,7.37
2019-05-07T20:20:22.022Z,7.65
2019-05-07T20:22:52.077Z,7.67
2019-05-07T20:25:22.680Z,8.88
2019-05-07T20:27:53.037Z,10.95
2019-05-07T20:30:23.393Z,9.65
2019-05-07T20:32:53.720Z,9.60
2019-05-07T20:35:24.057Z,8.60
2019-05-07T20:37:54.453Z,8.60
2019-05-07T20:40:24.807Z,7.87
2019-05-07T20:42:55.145Z,8.73
2019-05-07T20:45:25.499Z,7.87
2019-05-07T20:47:55.832Z,8.30
2019-05-07T20:50:26.168Z,8.38
2019-05-07T20:52:56.521Z,8.10
2019-05-07T20:55:34.723Z,9.70
2019-05-07T20:58:05.063Z,8.93
2019-05-07T21:00:35.420Z,8.60
2019-05-07T21:03:19.386Z,8.65
2019-05-07T21:05:53.370Z,8.55
2019-05-07T21:08:23.887Z,9.60
2019-05-07T21:10:54.230Z,9.95
2019-05-07T21:13:31.133Z,9.18
2019-05-07T21:15:57.732Z,9.78
2019-05-07T21:18:28.069Z,8.88
2019-05-07T21:20:58.405Z,9.15
2019-05-07T21:23:28.744Z,9.53
2019-05-07T21:25:59.095Z,9.05
2019-05-07T21:28:29.437Z,10.13
2019-05-07T21:30:59.780Z,9.55
2019-05-07T21:33:32.049Z,10.15
2019-05-07T21:36:02.820Z,10.35
2019-05-07T21:38:33.371Z,10.28
2019-05-07T21:41:03.705Z,10.30
2019-05-07T21:43:35.126Z,10.58
2019-05-07T21:46:05.462Z,9.45
2019-05-07T21:48:35.802Z,9.70
2019-05-07T21:51:25.490Z,11.40
2019-05-07T21:53:57.471Z,10.65
2019-05-07T21:56:41.568Z,11.15
2019-05-07T21:59:19.264Z,10.53
2019-05-07T22:01:52.642Z,10.93
2019-05-07T22:04:35.937Z,10.78
2019-05-07T22:07:07.586Z,11.12
2019-05-07T22:09:37.899Z,11.25
2019-05-07T22:12:08.234Z,10.88
2019-05-07T22:14:38.582Z,10.28
2019-05-07T22:17:09.661Z,10.05
2019-05-07T22:19:42.655Z,10.70
2019-05-07T22:22:13.206Z,9.85
2019-05-07T22:24:43.567Z,9.98
2019-05-07T22:27:14.878Z,10.08
2019-05-07T22:29:57.348Z,10.35
2019-05-07T22:32:29.323Z,10.00
2019-05-07T22:35:02.813Z,10.58
2019-05-07T22:37:34.904Z,11.12
2019-05-07T22:40:12.782Z,10.35
2019-05-07T22:42:51.579Z,10.72
2019-05-07T22:45:22.735Z,10.68
2019-05-07T22:47:53.298Z,10.53
2019-05-07T22:50:23.650Z,10.48
2019-05-07T22:52:54.467Z,9.85
2019-05-07T22:55:24.886Z,9.43
2019-05-07T22:58:02.849Z,10.20
2019-05-07T23:00:34.839Z,11.03
2019-05-07T23:03:05.237Z,10.63
2019-05-07T23:05:35.573Z,11.30
2019-05-07T23:08:09.377Z,10.70
2019-05-07T23:10:39.726Z,9.68
2019-05-07T23:13:10.061Z,10.43
2019-05-07T23:15:42.809Z,11.55
2019-05-07T23:18:13.031Z,11.12
2019-05-07T23:20:43.562Z,11.12
2019-05-07T23:23:14.297Z,10.68
2019-05-07T23:25:44.617Z,10.82
2019-05-07T23:28:14.954Z,11.60
2019-05-07T23:30:45.298Z,11.25
2019-05-07T23:33:15.665Z,11.08
2019-05-07T23:35:45.999Z,11.25
2019-05-07T23:38:16.351Z,11.70
2019-05-07T23:40:57.250Z,11.25
2019-05-07T23:43:27.591Z,10.98
2019-05-07T23:45:57.926Z,11.18
2019-05-07T23:48:28.283Z,11.43
2019-05-07T23:50:58.619Z,11.50
2019-05-07T23:53:28.965Z,11.70
2019-05-07T23:55:59.673Z,10.28
2019-05-07T23:58:32.536Z,11.10
